sensor_id;sensor_type;location;lat;lon;timestamp;pressure;altitude;pressure_sealevel;temperature;humidity
71504;BME280;59323;50.874;7.028;2023-08-01T00:00:50;99578.56;;;16.98;100.00
71504;BME280;59323;50.874;7.028;2023-08-01T00:03:15;99580.66;;;16.94;100.00
71504;BME280;59323;50.874;7.028;2023-08-01T00:05:41;99566.47;;;16.96;100.00
71504;BME280;59323;50.874;7.028;2023-08-01T00:08:11;99570.44;;;16.95;100.00
71504;BME280;59323;50.874;7.028;2023-08-01T00:10:38;99565.81;;;16.92;100.00
71504;BME280;59323;50.874;7.028;2023-08-01T00:13:03;99565.72;;;16.95;100.00
71504;BME280;59323;50.874;7.028;2023-08-01T00:15:28;99561.75;;;16.96;100.00
71504;BME280;59323;50.874;7.028;2023-08-01T00:17:54;99564.50;;;16.96;100.00
71504;BME280;59323;50.874;7.028;2023-08-01T00:20:19;99553.53;;;16.96;100.00
71504;BME280;59323;50.874;7.028;2023-08-01T00:22:44;99562.97;;;16.95;100.00
71504;BME280;59323;50.874;7.028;2023-08-01T00:25:10;99551.13;;;16.98;100.00
71504;BME280;59323;50.874;7.028;2023-08-01T00:27:35;99545.19;;;17.00;100.00
71504;BME280;59323;50.874;7.028;2023-08-01T00:30:00;99538.94;;;16.99;100.00
71504;BME280;59323;50.874;7.028;2023-08-01T00:32:26;99531.47;;;17.00;100.00
71504;BME280;59323;50.874;7.028;2023-08-01T00:34:51;99547.59;;;16.98;100.00
71504;BME280;59323;50.874;7.028;2023-08-01T00:37:17;99553.09;;;16.98;100.00
71504;BME280;59323;50.874;7.028;2023-08-01T00:39:42;99560.91;;;16.99;100.00
71504;BME280;59323;50.874;7.028;2023-08-01T00:42:08;99546.06;;;16.97;100.00
71504;BME280;59323;50.874;7.028;2023-08-01T00:44:33;99546.41;;;16.99;100.00
71504;BME280;59323;50.874;7.028;2023-08-01T00:46:58;99540.56;;;16.97;100.00
71504;BME280;59323;50.874;7.028;2023-08-01T00:49:24;99536.19;;;16.99;100.00
71504;BME280;59323;50.874;7.028;2023-08-01T00:51:50;99530.69;;;16.99;100.00
71504;BME280;59323;50.874;7.028;2023-08-01T00:54:15;99531.13;;;16.98;100.00
71504;BME280;59323;50.874;7.028;2023-08-01T00:56:41;99528.72;;;17.00;100.00
71504;BME280;59323;50.874;7.028;2023-08-01T00:59:07;99517.75;;;17.00;100.00
71504;BME280;59323;50.874;7.028;2023-08-01T01:01:32;99514.56;;;17.01;100.00
71504;BME280;59323;50.874;7.028;2023-08-01T01:03:58;99504.03;;;17.00;100.00
71504;BME280;59323;50.874;7.028;2023-08-01T01:06:41;99509.06;;;17.01;100.00
71504;BME280;59323;50.874;7.028;2023-08-01T01:09:17;99491.06;;;17.00;100.00
71504;BME280;59323;50.874;7.028;2023-08-01T01:11:43;99480.44;;;17.02;100.00
71504;BME280;59323;50.874;7.028;2023-08-01T01:14:09;99467.91;;;17.01;100.00
71504;BME280;59323;50.874;7.028;2023-08-01T01:16:34;99469.00;;;17.04;100.00
71504;BME280;59323;50.874;7.028;2023-08-01T01:18:59;99465.94;;;17.02;100.00
71504;BME280;59323;50.874;7.028;2023-08-01T01:21:25;99465.16;;;17.01;100.00
71504;BME280;59323;50.874;7.028;2023-08-01T01:23:50;99456.50;;;17.03;100.00
71504;BME280;59323;50.874;7.028;2023-08-01T01:26:17;99465.81;;;17.05;100.00
71504;BME280;59323;50.874;7.028;2023-08-01T01:28:48;99464.94;;;17.08;100.00
71504;BME280;59323;50.874;7.028;2023-08-01T01:31:15;99459.88;;;17.07;100.00
71504;BME280;59323;50.874;7.028;2023-08-01T01:33:40;99460.66;;;17.07;100.00
71504;BME280;59323;50.874;7.028;2023-08-01T01:36:06;99459.78;;;17.10;100.00
71504;BME280;59323;50.874;7.028;2023-08-01T01:38:32;99462.53;;;17.10;100.00
71504;BME280;59323;50.874;7.028;2023-08-01T01:40:57;99472.19;;;17.15;100.00
71504;BME280;59323;50.874;7.028;2023-08-01T01:43:22;99463.06;;;17.18;100.00
71504;BME280;59323;50.874;7.028;2023-08-01T01:45:47;99472.84;;;17.19;100.00
71504;BME280;59323;50.874;7.028;2023-08-01T01:48:13;99472.19;;;17.15;100.00
71504;BME280;59323;50.874;7.028;2023-08-01T01:50:38;99470.66;;;17.14;100.00
71504;BME280;59323;50.874;7.028;2023-08-01T01:53:03;99467.47;;;17.16;100.00
71504;BME280;59323;50.874;7.028;2023-08-01T01:55:29;99465.16;;;17.14;100.00
71504;BME280;59323;50.874;7.028;2023-08-01T01:57:54;99461.66;;;17.14;100.00
71504;BME280;59323;50.874;7.028;2023-08-01T02:00:19;99466.59;;;17.19;100.00
71504;BME280;59323;50.874;7.028;2023-08-01T02:02:45;99464.16;;;17.21;100.00
71504;BME280;59323;50.874;7.028;2023-08-01T02:05:10;99477.13;;;17.20;100.00
71504;BME280;59323;50.874;7.028;2023-08-01T02:07:35;99475.69;;;17.16;100.00
71504;BME280;59323;50.874;7.028;2023-08-01T02:10:02;99476.81;;;17.18;100.00
71504;BME280;59323;50.874;7.028;2023-08-01T02:12:27;99460.00;;;17.16;100.00
71504;BME280;59323;50.874;7.028;2023-08-01T02:14:56;99461.97;;;17.16;100.00
71504;BME280;59323;50.874;7.028;2023-08-01T02:17:22;99467.91;;;17.14;100.00
71504;BME280;59323;50.874;7.028;2023-08-01T02:19:47;99462.84;;;17.13;100.00
71504;BME280;59323;50.874;7.028;2023-08-01T02:22:13;99465.28;;;17.10;100.00
71504;BME280;59323;50.874;7.028;2023-08-01T02:24:38;99470.75;;;17.10;100.00
71504;BME280;59323;50.874;7.028;2023-08-01T02:27:04;99485.59;;;17.13;100.00
71504;BME280;59323;50.874;7.028;2023-08-01T02:29:29;99478.34;;;17.06;100.00
71504;BME280;59323;50.874;7.028;2023-08-01T02:31:54;99476.59;;;17.00;100.00
71504;BME280;59323;50.874;7.028;2023-08-01T02:34:21;99482.41;;;17.02;100.00
71504;BME280;59323;50.874;7.028;2023-08-01T02:36:46;99476.13;;;17.01;100.00
71504;BME280;59323;50.874;7.028;2023-08-01T02:39:12;99473.72;;;17.03;100.00
71504;BME280;59323;50.874;7.028;2023-08-01T02:41:37;99479.44;;;16.96;100.00
71504;BME280;59323;50.874;7.028;2023-08-01T02:44:02;99475.16;;;16.95;100.00
71504;BME280;59323;50.874;7.028;2023-08-01T02:46:28;99476.34;;;16.94;100.00
71504;BME280;59323;50.874;7.028;2023-08-01T02:48:55;99480.88;;;17.01;100.00
71504;BME280;59323;50.874;7.028;2023-08-01T02:51:20;99477.91;;;16.95;100.00
71504;BME280;59323;50.874;7.028;2023-08-01T02:53:45;99483.91;;;16.90;100.00
71504;BME280;59323;50.874;7.028;2023-08-01T02:56:11;99488.41;;;16.84;100.00
71504;BME280;59323;50.874;7.028;2023-08-01T02:58:36;99483.88;;;16.77;100.00
71504;BME280;59323;50.874;7.028;2023-08-01T03:01:06;99491.00;;;16.75;100.00
71504;BME280;59323;50.874;7.028;2023-08-01T03:03:33;99488.72;;;16.73;100.00
71504;BME280;59323;50.874;7.028;2023-08-01T03:06:00;99483.75;;;16.68;100.00
71504;BME280;59323;50.874;7.028;2023-08-01T03:08:26;99491.22;;;16.68;100.00
71504;BME280;59323;50.874;7.028;2023-08-01T03:10:51;99492.94;;;16.62;100.00
71504;BME280;59323;50.874;7.028;2023-08-01T03:13:16;99488.22;;;16.62;100.00
71504;BME280;59323;50.874;7.028;2023-08-01T03:15:42;99490.63;;;16.60;100.00
71504;BME280;59323;50.874;7.028;2023-08-01T03:18:07;99499.28;;;16.59;100.00
71504;BME280;59323;50.874;7.028;2023-08-01T03:20:33;99504.88;;;16.55;100.00
71504;BME280;59323;50.874;7.028;2023-08-01T03:22:58;99507.28;;;16.53;100.00
71504;BME280;59323;50.874;7.028;2023-08-01T03:25:24;99509.03;;;16.47;100.00
71504;BME280;59323;50.874;7.028;2023-08-01T03:27:49;99508.59;;;16.48;100.00
71504;BME280;59323;50.874;7.028;2023-08-01T03:30:14;99512.88;;;16.49;100.00
71504;BME280;59323;50.874;7.028;2023-08-01T03:32:40;99521.97;;;16.46;100.00
71504;BME280;59323;50.874;7.028;2023-08-01T03:35:06;99514.94;;;16.45;100.00
71504;BME280;59323;50.874;7.028;2023-08-01T03:37:32;99513.94;;;16.39;100.00
71504;BME280;59323;50.874;7.028;2023-08-01T03:39:57;99520.19;;;16.40;100.00
71504;BME280;59323;50.874;7.028;2023-08-01T03:42:23;99516.00;;;16.35;100.00
71504;BME280;59323;50.874;7.028;2023-08-01T03:44:48;99529.03;;;16.31;100.00
71504;BME280;59323;50.874;7.028;2023-08-01T03:47:13;99529.13;;;16.28;100.00
71504;BME280;59323;50.874;7.028;2023-08-01T03:49:39;99529.13;;;16.28;100.00
71504;BME280;59323;50.874;7.028;2023-08-01T03:52:07;99531.88;;;16.28;100.00
71504;BME280;59323;50.874;7.028;2023-08-01T03:54:32;99534.63;;;16.28;100.00
71504;BME280;59323;50.874;7.028;2023-08-01T03:56:57;99539.25;;;16.31;100.00
71504;BME280;59323;50.874;7.028;2023-08-01T03:59:23;99539.34;;;16.27;100.00
71504;BME280;59323;50.874;7.028;2023-08-01T04:01:48;99536.94;;;16.29;100.00
71504;BME280;59323;50.874;7.028;2023-08-01T04:04:13;99546.03;;;16.26;100.00
71504;BME280;59323;50.874;7.028;2023-08-01T04:06:39;99549.53;;;16.27;100.00
71504;BME280;59323;50.874;7.028;2023-08-01T04:09:04;99542.16;;;16.24;100.00
71504;BME280;59323;50.874;7.028;2023-08-01T04:11:31;99551.56;;;16.23;100.00
71504;BME280;59323;50.874;7.028;2023-08-01T04:13:57;99556.38;;;16.18;100.00
71504;BME280;59323;50.874;7.028;2023-08-01T04:16:22;99553.63;;;16.18;100.00
71504;BME280;59323;50.874;7.028;2023-08-01T04:18:48;99547.03;;;16.16;100.00
71504;BME280;59323;50.874;7.028;2023-08-01T04:21:14;99553.72;;;16.15;100.00
71504;BME280;59323;50.874;7.028;2023-08-01T04:23:39;99554.59;;;16.12;100.00
71504;BME280;59323;50.874;7.028;2023-08-01T04:26:05;99556.13;;;16.13;100.00
71504;BME280;59323;50.874;7.028;2023-08-01T04:28:32;99556.56;;;16.11;100.00
71504;BME280;59323;50.874;7.028;2023-08-01T04:30:57;99545.25;;;16.09;100.00
71504;BME280;59323;50.874;7.028;2023-08-01T04:33:22;99551.50;;;16.10;100.00
71504;BME280;59323;50.874;7.028;2023-08-01T04:35:48;99558.53;;;16.11;100.00
71504;BME280;59323;50.874;7.028;2023-08-01T04:38:14;99563.56;;;16.12;100.00
71504;BME280;59323;50.874;7.028;2023-08-01T04:40:40;99562.72;;;16.15;100.00
71504;BME280;59323;50.874;7.028;2023-08-01T04:43:06;99569.06;;;16.12;100.00
71504;BME280;59323;50.874;7.028;2023-08-01T04:45:31;99576.94;;;16.10;100.00
71504;BME280;59323;50.874;7.028;2023-08-01T04:47:56;99574.97;;;16.11;100.00
71504;BME280;59323;50.874;7.028;2023-08-01T04:50:22;99573.09;;;16.08;100.00
71504;BME280;59323;50.874;7.028;2023-08-01T04:52:47;99582.50;;;16.07;100.00
71504;BME280;59323;50.874;7.028;2023-08-01T04:55:12;99569.66;;;16.04;100.00
71504;BME280;59323;50.874;7.028;2023-08-01T04:57:38;99575.16;;;16.04;100.00
71504;BME280;59323;50.874;7.028;2023-08-01T05:00:04;99567.34;;;16.02;100.00
71504;BME280;59323;50.874;7.028;2023-08-01T05:02:29;99580.19;;;16.05;100.00
71504;BME280;59323;50.874;7.028;2023-08-01T05:04:55;99581.91;;;15.99;100.00
71504;BME280;59323;50.874;7.028;2023-08-01T05:07:20;99580.38;;;15.98;100.00
71504;BME280;59323;50.874;7.028;2023-08-01T05:09:46;99594.94;;;15.95;100.00
71504;BME280;59323;50.874;7.028;2023-08-01T05:12:11;99601.63;;;15.94;100.00
71504;BME280;59323;50.874;7.028;2023-08-01T05:14:40;99598.44;;;15.96;100.00
71504;BME280;59323;50.874;7.028;2023-08-01T05:17:05;99601.19;;;15.96;100.00
71504;BME280;59323;50.874;7.028;2023-08-01T05:19:31;99594.16;;;15.95;100.00
71504;BME280;59323;50.874;7.028;2023-08-01T05:21:57;99588.78;;;15.91;100.00
71504;BME280;59323;50.874;7.028;2023-08-01T05:24:22;99580.97;;;15.90;100.00
71504;BME280;59323;50.874;7.028;2023-08-01T05:26:47;99577.81;;;15.91;100.00
71504;BME280;59323;50.874;7.028;2023-08-01T05:29:13;99575.50;;;15.90;100.00
71504;BME280;59323;50.874;7.028;2023-08-01T05:31:38;99573.88;;;15.92;100.00
71504;BME280;59323;50.874;7.028;2023-08-01T05:34:04;99577.81;;;15.91;100.00
71504;BME280;59323;50.874;7.028;2023-08-01T05:36:29;99585.94;;;15.95;100.00
71504;BME280;59323;50.874;7.028;2023-08-01T05:38:55;99601.63;;;15.94;100.00
71504;BME280;59323;50.874;7.028;2023-08-01T05:41:20;99600.41;;;15.95;100.00
71504;BME280;59323;50.874;7.028;2023-08-01T05:43:47;99621.56;;;15.95;100.00
71504;BME280;59323;50.874;7.028;2023-08-01T05:46:13;99617.63;;;15.96;100.00
71504;BME280;59323;50.874;7.028;2023-08-01T05:48:38;99625.06;;;15.95;100.00
71504;BME280;59323;50.874;7.028;2023-08-01T05:51:04;99632.88;;;15.97;100.00
71504;BME280;59323;50.874;7.028;2023-08-01T05:53:29;99636.28;;;16.01;100.00
71504;BME280;59323;50.874;7.028;2023-08-01T05:55:55;99642.13;;;16.03;100.00
71504;BME280;59323;50.874;7.028;2023-08-01T05:58:20;99643.75;;;16.00;100.00
71504;BME280;59323;50.874;7.028;2023-08-01T06:00:46;99644.44;;;16.04;100.00
71504;BME280;59323;50.874;7.028;2023-08-01T06:03:11;99645.53;;;16.07;100.00
71504;BME280;59323;50.874;7.028;2023-08-01T06:05:37;99638.53;;;16.06;100.00
71504;BME280;59323;50.874;7.028;2023-08-01T06:08:03;99655.31;;;16.08;100.00
71504;BME280;59323;50.874;7.028;2023-08-01T06:10:28;99652.91;;;16.10;100.00
71504;BME280;59323;50.874;7.028;2023-08-01T06:12:54;99640.22;;;16.16;100.00
71504;BME280;59323;50.874;7.028;2023-08-01T06:15:19;99649.91;;;16.21;100.00
71504;BME280;59323;50.874;7.028;2023-08-01T06:17:46;99643.13;;;16.25;100.00
71504;BME280;59323;50.874;7.028;2023-08-01T06:20:11;99649.69;;;16.31;100.00
71504;BME280;59323;50.874;7.028;2023-08-01T06:22:37;99636.75;;;16.32;100.00
71504;BME280;59323;50.874;7.028;2023-08-01T06:25:03;99640.22;;;16.48;100.00
71504;BME280;59323;50.874;7.028;2023-08-01T06:27:28;99641.91;;;16.59;100.00
71504;BME280;59323;50.874;7.028;2023-08-01T06:29:54;99633.59;;;16.62;100.00
71504;BME280;59323;50.874;7.028;2023-08-01T06:32:19;99645.69;;;16.65;100.00
71504;BME280;59323;50.874;7.028;2023-08-01T06:34:44;99636.19;;;16.69;100.00
71504;BME280;59323;50.874;7.028;2023-08-01T06:37:10;99645.00;;;16.77;100.00
71504;BME280;59323;50.874;7.028;2023-08-01T06:39:35;99640.94;;;16.82;100.00
71504;BME280;59323;50.874;7.028;2023-08-01T06:42:01;99647.72;;;16.93;100.00
71504;BME280;59323;50.874;7.028;2023-08-01T06:44:26;99642.13;;;16.97;100.00
71504;BME280;59323;50.874;7.028;2023-08-01T06:46:51;99636.44;;;17.04;98.82
71504;BME280;59323;50.874;7.028;2023-08-01T06:49:17;99652.47;;;17.05;99.28
71504;BME280;59323;50.874;7.028;2023-08-01T06:51:42;99637.44;;;17.10;97.56
71504;BME280;59323;50.874;7.028;2023-08-01T06:54:08;99642.97;;;17.23;96.94
71504;BME280;59323;50.874;7.028;2023-08-01T06:56:33;99642.44;;;17.40;97.05
71504;BME280;59323;50.874;7.028;2023-08-01T06:58:58;99646.75;;;17.54;98.48
71504;BME280;59323;50.874;7.028;2023-08-01T07:01:24;99648.53;;;17.61;99.14
71504;BME280;59323;50.874;7.028;2023-08-01T07:03:49;99654.28;;;17.66;98.74
71504;BME280;59323;50.874;7.028;2023-08-01T07:06:17;99646.44;;;17.65;94.08
71504;BME280;59323;50.874;7.028;2023-08-01T07:08:42;99641.06;;;17.61;96.46
71504;BME280;59323;50.874;7.028;2023-08-01T07:11:08;99641.94;;;17.58;94.38
71504;BME280;59323;50.874;7.028;2023-08-01T07:13:33;99649.09;;;17.56;93.44
71504;BME280;59323;50.874;7.028;2023-08-01T07:15:58;99655.41;;;17.53;93.97
71504;BME280;59323;50.874;7.028;2023-08-01T07:18:23;99666.41;;;17.53;95.51
71504;BME280;59323;50.874;7.028;2023-08-01T07:20:59;99653.13;;;17.51;91.51
71504;BME280;59323;50.874;7.028;2023-08-01T07:23:24;99657.59;;;17.45;91.93
71504;BME280;59323;50.874;7.028;2023-08-01T07:25:50;99656.84;;;17.44;92.37
71504;BME280;59323;50.874;7.028;2023-08-01T07:28:15;99661.56;;;17.44;92.93
71504;BME280;59323;50.874;7.028;2023-08-01T07:30:41;99660.34;;;17.45;93.00
71504;BME280;59323;50.874;7.028;2023-08-01T07:33:06;99672.66;;;17.53;94.34
71504;BME280;59323;50.874;7.028;2023-08-01T07:35:32;99671.81;;;17.56;92.01
71504;BME280;59323;50.874;7.028;2023-08-01T07:37:57;99674.03;;;17.61;90.24
71504;BME280;59323;50.874;7.028;2023-08-01T07:40:22;99673.63;;;17.76;88.90
71504;BME280;59323;50.874;7.028;2023-08-01T07:42:47;99673.84;;;17.81;90.53
71504;BME280;59323;50.874;7.028;2023-08-01T07:45:13;99674.41;;;17.89;89.79
71504;BME280;59323;50.874;7.028;2023-08-01T07:47:38;99675.72;;;17.84;85.80
71504;BME280;59323;50.874;7.028;2023-08-01T07:50:04;99674.41;;;17.76;87.21
71504;BME280;59323;50.874;7.028;2023-08-01T07:52:29;99677.03;;;17.67;89.73
71504;BME280;59323;50.874;7.028;2023-08-01T07:54:55;99688.69;;;17.71;91.11
71504;BME280;59323;50.874;7.028;2023-08-01T07:57:22;99689.00;;;17.73;91.62
71504;BME280;59323;50.874;7.028;2023-08-01T07:59:48;99690.13;;;17.76;91.90
71504;BME280;59323;50.874;7.028;2023-08-01T08:02:13;99692.53;;;17.73;89.63
71504;BME280;59323;50.874;7.028;2023-08-01T08:04:38;99703.41;;;17.77;90.35
71504;BME280;59323;50.874;7.028;2023-08-01T08:07:04;99698.38;;;17.88;91.04
71504;BME280;59323;50.874;7.028;2023-08-01T08:09:29;99694.19;;;18.09;90.11
71504;BME280;59323;50.874;7.028;2023-08-01T08:11:55;99703.41;;;18.41;90.18
71504;BME280;59323;50.874;7.028;2023-08-01T08:14:22;99702.50;;;18.69;86.46
71504;BME280;59323;50.874;7.028;2023-08-01T08:16:48;99702.44;;;18.94;84.45
71504;BME280;59323;50.874;7.028;2023-08-01T08:19:14;99702.56;;;19.13;78.63
71504;BME280;59323;50.874;7.028;2023-08-01T08:21:39;99697.91;;;19.22;78.51
71504;BME280;59323;50.874;7.028;2023-08-01T08:24:04;99693.94;;;19.23;80.27
71504;BME280;59323;50.874;7.028;2023-08-01T08:26:30;99699.94;;;19.31;80.47
71504;BME280;59323;50.874;7.028;2023-08-01T08:28:56;99698.41;;;19.30;79.46
71504;BME280;59323;50.874;7.028;2023-08-01T08:31:22;99700.78;;;19.41;80.37
71504;BME280;59323;50.874;7.028;2023-08-01T08:33:47;99705.06;;;19.54;80.77
71504;BME280;59323;50.874;7.028;2023-08-01T08:36:13;99705.41;;;19.66;80.30
71504;BME280;59323;50.874;7.028;2023-08-01T08:38:38;99712.28;;;19.92;78.55
71504;BME280;59323;50.874;7.028;2023-08-01T08:42:07;99703.41;;;19.97;76.44
71504;BME280;59323;50.874;7.028;2023-08-01T08:44:03;99704.78;;;19.92;73.61
71504;BME280;59323;50.874;7.028;2023-08-01T08:46:31;99711.06;;;19.62;73.51
71504;BME280;59323;50.874;7.028;2023-08-01T08:48:59;99708.75;;;19.60;76.35
71504;BME280;59323;50.874;7.028;2023-08-01T08:51:28;99708.03;;;19.69;75.71
71504;BME280;59323;50.874;7.028;2023-08-01T08:53:55;99706.94;;;19.67;75.81
71504;BME280;59323;50.874;7.028;2023-08-01T08:56:21;99694.38;;;19.66;78.99
71504;BME280;59323;50.874;7.028;2023-08-01T08:58:47;99704.81;;;19.71;73.29
71504;BME280;59323;50.874;7.028;2023-08-01T09:01:13;99698.53;;;20.01;77.12
71504;BME280;59323;50.874;7.028;2023-08-01T09:03:39;99701.00;;;20.39;72.91
71504;BME280;59323;50.874;7.028;2023-08-01T09:06:09;99706.38;;;20.43;71.52
71504;BME280;59323;50.874;7.028;2023-08-01T09:08:36;99723.75;;;20.21;68.65
71504;BME280;59323;50.874;7.028;2023-08-01T09:11:02;99705.03;;;20.16;69.73
71504;BME280;59323;50.874;7.028;2023-08-01T09:13:28;99716.50;;;20.15;70.27
71504;BME280;59323;50.874;7.028;2023-08-01T09:15:54;99721.41;;;20.11;69.68
71504;BME280;59323;50.874;7.028;2023-08-01T09:18:21;99733.03;;;20.06;70.31
71504;BME280;59323;50.874;7.028;2023-08-01T09:20:47;99733.16;;;20.02;73.06
71504;BME280;59323;50.874;7.028;2023-08-01T09:23:14;99734.69;;;20.03;72.07
71504;BME280;59323;50.874;7.028;2023-08-01T09:25:40;99735.47;;;20.04;72.93
71504;BME280;59323;50.874;7.028;2023-08-01T09:28:19;99729.31;;;20.00;71.75
71504;BME280;59323;50.874;7.028;2023-08-01T09:30:53;99736.25;;;20.13;73.13
71504;BME280;59323;50.874;7.028;2023-08-01T09:33:23;99733.88;;;20.24;72.65
71504;BME280;59323;50.874;7.028;2023-08-01T09:35:51;99733.25;;;20.20;70.43
71504;BME280;59323;50.874;7.028;2023-08-01T09:38:17;99732.94;;;20.18;73.25
71504;BME280;59323;50.874;7.028;2023-08-01T09:40:44;99743.28;;;20.05;69.77
71504;BME280;59323;50.874;7.028;2023-08-01T09:43:11;99742.16;;;19.93;69.87
71504;BME280;59323;50.874;7.028;2023-08-01T09:45:36;99743.56;;;19.98;74.41
71504;BME280;59323;50.874;7.028;2023-08-01T09:48:02;99741.16;;;20.09;71.34
71504;BME280;59323;50.874;7.028;2023-08-01T09:50:28;99727.31;;;20.31;70.72
71504;BME280;59323;50.874;7.028;2023-08-01T09:52:54;99736.13;;;20.48;72.44
71504;BME280;59323;50.874;7.028;2023-08-01T09:55:31;99728.03;;;20.72;67.85
71504;BME280;59323;50.874;7.028;2023-08-01T09:57:58;99735.25;;;20.78;68.15
71504;BME280;59323;50.874;7.028;2023-08-01T10:00:28;99738.00;;;20.60;66.28
71504;BME280;59323;50.874;7.028;2023-08-01T10:02:57;99733.84;;;20.55;70.42
71504;BME280;59323;50.874;7.028;2023-08-01T10:05:26;99740.09;;;20.47;66.76
71504;BME280;59323;50.874;7.028;2023-08-01T10:07:55;99732.44;;;20.42;68.57
71504;BME280;59323;50.874;7.028;2023-08-01T10:10:22;99737.94;;;20.42;69.86
71504;BME280;59323;50.874;7.028;2023-08-01T10:12:49;99747.00;;;20.42;70.02
71504;BME280;59323;50.874;7.028;2023-08-01T10:15:15;99740.28;;;20.52;68.19
71504;BME280;59323;50.874;7.028;2023-08-01T10:17:41;99733.84;;;20.65;68.05
71504;BME280;59323;50.874;7.028;2023-08-01T10:20:07;99734.50;;;20.78;66.49
71504;BME280;59323;50.874;7.028;2023-08-01T10:22:33;99739.88;;;20.81;66.74
71504;BME280;59323;50.874;7.028;2023-08-01T10:25:05;99733.75;;;20.96;69.28
71504;BME280;59323;50.874;7.028;2023-08-01T10:27:30;99726.41;;;21.11;66.09
71504;BME280;59323;50.874;7.028;2023-08-01T10:29:57;99724.56;;;21.26;68.76
71504;BME280;59323;50.874;7.028;2023-08-01T10:32:34;99734.56;;;21.24;64.45
71504;BME280;59323;50.874;7.028;2023-08-01T10:34:59;99730.84;;;21.17;65.60
71504;BME280;59323;50.874;7.028;2023-08-01T10:37:25;99722.41;;;21.12;67.63
71504;BME280;59323;50.874;7.028;2023-08-01T10:39:59;99727.94;;;21.12;64.84
71504;BME280;59323;50.874;7.028;2023-08-01T10:42:24;99715.97;;;20.97;66.72
71504;BME280;59323;50.874;7.028;2023-08-01T10:44:50;99723.16;;;20.85;65.76
71504;BME280;59323;50.874;7.028;2023-08-01T10:47:25;99723.91;;;20.76;64.36
71504;BME280;59323;50.874;7.028;2023-08-01T10:49:51;99727.47;;;20.86;64.74
71504;BME280;59323;50.874;7.028;2023-08-01T10:55:01;99723.94;;;21.31;65.04
71504;BME280;59323;50.874;7.028;2023-08-01T10:57:28;99713.78;;;21.65;66.04
71504;BME280;59323;50.874;7.028;2023-08-01T10:59:58;99719.81;;;21.96;62.03
71504;BME280;59323;50.874;7.028;2023-08-01T11:02:28;99725.16;;;22.09;59.08
71504;BME280;59323;50.874;7.028;2023-08-01T11:05:04;99718.75;;;21.94;58.61
71504;BME280;59323;50.874;7.028;2023-08-01T11:07:31;99728.44;;;21.89;59.48
71504;BME280;59323;50.874;7.028;2023-08-01T11:10:07;99725.66;;;21.98;57.05
71504;BME280;59323;50.874;7.028;2023-08-01T11:12:37;99722.88;;;21.98;57.39
71504;BME280;59323;50.874;7.028;2023-08-01T11:15:04;99723.19;;;22.00;60.94
71504;BME280;59323;50.874;7.028;2023-08-01T11:17:31;99725.94;;;22.09;59.05
71504;BME280;59323;50.874;7.028;2023-08-01T11:20:02;99728.34;;;22.26;58.81
71504;BME280;59323;50.874;7.028;2023-08-01T11:22:29;99728.25;;;22.44;59.44
71504;BME280;59323;50.874;7.028;2023-08-01T11:24:55;99726.19;;;22.54;56.35
71504;BME280;59323;50.874;7.028;2023-08-01T11:27:22;99728.91;;;22.63;61.56
71504;BME280;59323;50.874;7.028;2023-08-01T11:29:48;99728.22;;;22.77;57.62
71504;BME280;59323;50.874;7.028;2023-08-01T11:32:13;99725.75;;;22.79;54.85
71504;BME280;59323;50.874;7.028;2023-08-01T11:34:40;99740.38;;;22.70;55.42
71504;BME280;59323;50.874;7.028;2023-08-01T11:37:07;99725.13;;;22.75;53.53
71504;BME280;59323;50.874;7.028;2023-08-01T11:39:32;99732.56;;;22.69;54.63
71504;BME280;59323;50.874;7.028;2023-08-01T11:41:59;99733.03;;;22.67;56.04
71504;BME280;59323;50.874;7.028;2023-08-01T11:44:25;99736.25;;;22.66;53.81
71504;BME280;59323;50.874;7.028;2023-08-01T11:46:51;99734.63;;;22.59;56.40
71504;BME280;59323;50.874;7.028;2023-08-01T11:49:19;99743.16;;;22.46;55.29
71504;BME280;59323;50.874;7.028;2023-08-01T11:51:45;99749.81;;;22.40;57.00
71504;BME280;59323;50.874;7.028;2023-08-01T11:54:11;99744.63;;;22.33;56.02
71504;BME280;59323;50.874;7.028;2023-08-01T11:56:39;99752.53;;;22.16;56.37
71504;BME280;59323;50.874;7.028;2023-08-01T11:59:15;99756.41;;;21.91;60.46
71504;BME280;59323;50.874;7.028;2023-08-01T12:01:43;99784.75;;;21.68;64.42
71504;BME280;59323;50.874;7.028;2023-08-01T12:04:09;99769.88;;;21.47;67.93
71504;BME280;59323;50.874;7.028;2023-08-01T12:06:35;99767.69;;;21.42;68.77
71504;BME280;59323;50.874;7.028;2023-08-01T12:09:10;99762.47;;;21.44;69.08
71504;BME280;59323;50.874;7.028;2023-08-01T12:11:36;99768.78;;;21.44;68.27
71504;BME280;59323;50.874;7.028;2023-08-01T12:14:15;99772.31;;;21.45;67.07
71504;BME280;59323;50.874;7.028;2023-08-01T12:16:42;99769.25;;;21.43;67.18
71504;BME280;59323;50.874;7.028;2023-08-01T12:19:09;99768.78;;;21.44;63.58
71504;BME280;59323;50.874;7.028;2023-08-01T12:21:35;99760.94;;;21.43;66.44
71504;BME280;59323;50.874;7.028;2023-08-01T12:24:01;99759.88;;;21.40;64.54
71504;BME280;59323;50.874;7.028;2023-08-01T12:26:26;99761.44;;;21.50;66.62
71504;BME280;59323;50.874;7.028;2023-08-01T12:28:52;99763.56;;;21.56;66.22
71504;BME280;59323;50.874;7.028;2023-08-01T12:31:19;99763.88;;;21.58;66.08
71504;BME280;59323;50.874;7.028;2023-08-01T12:33:45;99754.03;;;21.57;65.27
71504;BME280;59323;50.874;7.028;2023-08-01T12:36:11;99768.03;;;21.53;64.62
71504;BME280;59323;50.874;7.028;2023-08-01T12:38:37;99769.09;;;21.46;64.10
71504;BME280;59323;50.874;7.028;2023-08-01T12:41:02;99785.22;;;21.39;65.38
71504;BME280;59323;50.874;7.028;2023-08-01T12:43:27;99781.34;;;21.18;70.86
71504;BME280;59323;50.874;7.028;2023-08-01T12:45:53;99789.78;;;21.05;73.46
71504;BME280;59323;50.874;7.028;2023-08-01T12:48:19;99799.44;;;20.92;75.49
71504;BME280;59323;50.874;7.028;2023-08-01T12:50:45;99793.59;;;20.89;78.08
71504;BME280;59323;50.874;7.028;2023-08-01T12:53:11;99791.44;;;20.84;77.97